Time;durP1;ratioP1;P1;durP2;ratioP2;P2;SDS_P1;SDS_P2;PMS_P1;PMS_P2;Temp;Humidity;BMP_temperature;BMP_pressure;BME280_temperature;BME280_humidity;BME280_pressure;Samples;Min_cycle;Max_cycle;Signal;HPM_P1;HPM_P2
2023/02/19 00:01:09;;;;;;;;;11.25;11.25;;;;;;;;5046283;28;10028;-76
2023/02/19 00:03:37;;;;;;;;;14.00;12.25;;;;;;;;5045414;28;10455;-75
2023/02/19 00:06:08;;;;;;;;;15.75;11.00;;;;;;;;5028232;28;10339;-76
2023/02/19 00:08:38;;;;;;;;;12.00;12.00;;;;;;;;5044860;28;10400;-75
2023/02/19 00:11:08;;;;;;;;;12.50;12.50;;;;;;;;5049859;28;10418;-76
2023/02/19 00:13:37;;;;;;;;;13.50;11.75;;;;;;;;5049914;28;11390;-76
2023/02/19 00:16:07;;;;;;;;;13.50;12.50;;;;;;;;5046319;28;10584;-76
2023/02/19 00:18:34;;;;;;;;;10.75;9.75;;;;;;;;5046161;28;10512;-75
2023/02/19 00:21:03;;;;;;;;;14.50;12.75;;;;;;;;5029395;28;10329;-76
2023/02/19 00:23:32;;;;;;;;;10.75;10.00;;;;;;;;5032780;28;10463;-76
2023/02/19 00:26:03;;;;;;;;;11.50;11.00;;;;;;;;5029041;28;10255;-75
2023/02/19 00:28:30;;;;;;;;;10.50;10.50;;;;;;;;5027568;28;10275;-75
2023/02/19 00:31:05;;;;;;;;;6.00;6.00;;;;;;;;5029532;28;10185;-75
2023/02/19 00:33:32;;;;;;;;;12.25;11.75;;;;;;;;5049125;28;10018;-76
2023/02/19 00:36:01;;;;;;;;;11.00;11.00;;;;;;;;5043348;28;10234;-75
2023/02/19 00:38:28;;;;;;;;;12.00;12.00;;;;;;;;5041156;28;10202;-76
2023/02/19 00:40:59;;;;;;;;;5.25;5.25;;;;;;;;5028652;28;10018;-76
2023/02/19 00:43:27;;;;;;;;;12.75;12.75;;;;;;;;5028625;28;10144;-80
2023/02/19 00:45:54;;;;;;;;;12.00;11.00;;;;;;;;5044172;28;11020;-77
2023/02/19 00:48:22;;;;;;;;;10.75;10.75;;;;;;;;5050359;28;10265;-76
2023/02/19 00:50:50;;;;;;;;;12.50;11.25;;;;;;;;5049301;28;10236;-75
2023/02/19 00:53:17;;;;;;;;;12.00;11.75;;;;;;;;5049178;28;10260;-77
2023/02/19 00:55:45;;;;;;;;;12.00;9.50;;;;;;;;5048148;28;10958;-76
2023/02/19 00:58:14;;;;;;;;;11.75;11.75;;;;;;;;5051704;28;10059;-76
2023/02/19 01:00:41;;;;;;;;;10.75;10.75;;;;;;;;5031573;28;10142;-76
2023/02/19 01:03:09;;;;;;;;;8.50;8.50;;;;;;;;5025313;28;10053;-76
2023/02/19 01:05:37;;;;;;;;;12.50;12.50;;;;;;;;5041177;28;10283;-81
2023/02/19 01:08:04;;;;;;;;;10.50;9.25;;;;;;;;5031807;28;10249;-76
2023/02/19 01:10:32;;;;;;;;;9.75;9.75;;;;;;;;5043602;28;10073;-76
2023/02/19 01:12:59;;;;;;;;;10.25;9.00;;;;;;;;5029506;28;10240;-76
2023/02/19 01:15:28;;;;;;;;;11.25;11.25;;;;;;;;5027589;28;10057;-76
2023/02/19 01:17:56;;;;;;;;;10.75;9.75;;;;;;;;5049545;28;10070;-76
2023/02/19 01:20:23;;;;;;;;;13.75;9.25;;;;;;;;5026075;28;10090;-76
2023/02/19 01:22:51;;;;;;;;;10.00;10.00;;;;;;;;5030090;28;10123;-76
2023/02/19 01:25:18;;;;;;;;;7.00;6.75;;;;;;;;5031399;28;10074;-75
2023/02/19 01:27:46;;;;;;;;;10.00;8.75;;;;;;;;5038669;28;10127;-76
2023/02/19 01:30:13;;;;;;;;;7.75;6.00;;;;;;;;5027091;28;9991;-76
2023/02/19 01:32:43;;;;;;;;;9.00;6.50;;;;;;;;5045919;28;9902;-75
2023/02/19 01:35:10;;;;;;;;;6.25;6.25;;;;;;;;5022911;28;9898;-75
2023/02/19 01:37:37;;;;;;;;;9.00;7.25;;;;;;;;5037747;28;9893;-76
2023/02/19 01:40:06;;;;;;;;;9.00;6.00;;;;;;;;5045980;28;10028;-75
2023/02/19 01:42:33;;;;;;;;;5.00;5.00;;;;;;;;5028336;28;10019;-75
2023/02/19 01:45:25;;;;;;;;;4.25;4.25;;;;;;;;5043835;28;10029;-76
2023/02/19 01:48:03;;;;;;;;;3.00;3.00;;;;;;;;4998097;28;9970;-76
2023/02/19 01:50:35;;;;;;;;;5.00;4.00;;;;;;;;5028607;28;9883;-76
2023/02/19 01:53:04;;;;;;;;;4.00;4.00;;;;;;;;5027769;28;10668;-76
2023/02/19 01:55:33;;;;;;;;;4.75;4.75;;;;;;;;5025259;28;9845;-75
2023/02/19 01:58:02;;;;;;;;;4.00;4.00;;;;;;;;5028242;28;9948;-76
2023/02/19 02:00:30;;;;;;;;;5.00;4.00;;;;;;;;5025817;28;9839;-75
2023/02/19 02:03:00;;;;;;;;;3.00;3.00;;;;;;;;5040756;28;10023;-75
2023/02/19 02:05:44;;;;;;;;;2.50;2.50;;;;;;;;5028706;28;9780;-75
2023/02/19 02:10:58;;;;;;;;;2.00;2.00;;;;;;;;5045498;28;9679;-75
2023/02/19 02:13:26;;;;;;;;;1.50;1.25;;;;;;;;5027289;28;9761;-77
2023/02/19 02:16:03;;;;;;;;;2.00;2.00;;;;;;;;5040645;28;9954;-76
2023/02/19 02:18:41;;;;;;;;;3.00;3.00;;;;;;;;5026738;28;9892;-75
2023/02/19 02:21:46;;;;;;;;;1.00;1.00;;;;;;;;5047157;28;9826;-75
2023/02/19 02:24:37;;;;;;;;;4.00;2.75;;;;;;;;5011476;28;9766;-75
2023/02/19 02:27:18;;;;;;;;;4.00;2.00;;;;;;;;5023136;28;9768;-75
2023/02/19 02:30:09;;;;;;;;;3.00;3.00;;;;;;;;5045883;28;9847;-76
2023/02/19 02:32:39;;;;;;;;;2.25;2.25;;;;;;;;5024650;28;9762;-77
2023/02/19 02:35:10;;;;;;;;;4.00;4.00;;;;;;;;5040311;28;9760;-75
2023/02/19 02:37:40;;;;;;;;;1.75;1.75;;;;;;;;5039583;28;9956;-75
2023/02/19 02:40:10;;;;;;;;;2.00;2.00;;;;;;;;5045853;28;9804;-76
2023/02/19 02:42:40;;;;;;;;;2.25;2.25;;;;;;;;5023090;28;9787;-76
2023/02/19 02:45:38;;;;;;;;;2.50;2.50;;;;;;;;5047367;28;9866;-75
2023/02/19 02:48:20;;;;;;;;;3.25;2.75;;;;;;;;5024148;28;9977;-75
2023/02/19 02:50:53;;;;;;;;;3.00;3.00;;;;;;;;5039995;28;9791;-75
2023/02/19 02:56:11;;;;;;;;;2.00;2.00;;;;;;;;5046836;28;9814;-76
2023/02/19 02:58:39;;;;;;;;;3.50;3.00;;;;;;;;5046710;28;9704;-75
2023/02/19 03:04:14;;;;;;;;;3.75;3.75;;;;;;;;4949506;28;9919;-75
2023/02/19 03:06:42;;;;;;;;;1.00;1.00;;;;;;;;4951836;28;9746;-76
2023/02/19 03:09:13;;;;;;;;;2.00;2.00;;;;;;;;4995616;28;9572;-76
2023/02/19 03:20:11;;;;;;;;;3.00;1.50;;;;;;;;5044034;28;9708;-75
2023/02/19 03:22:39;;;;;;;;;3.25;3.00;;;;;;;;5040836;28;9682;-76
2023/02/19 03:27:57;;;;;;;;;1.25;1.25;;;;;;;;5049939;28;9677;-76
2023/02/19 03:30:29;;;;;;;;;3.50;3.50;;;;;;;;5025551;28;9538;-77
2023/02/19 03:33:01;;;;;;;;;3.00;3.00;;;;;;;;5044637;28;9627;-76
2023/02/19 03:35:32;;;;;;;;;4.00;3.00;;;;;;;;5042958;28;9806;-76
2023/02/19 03:38:04;;;;;;;;;4.50;4.50;;;;;;;;5045053;28;9694;-75
2023/02/19 03:40:37;;;;;;;;;2.25;2.25;;;;;;;;5046741;28;9735;-76
2023/02/19 03:43:10;;;;;;;;;4.50;1.75;;;;;;;;5016439;28;9706;-76
2023/02/19 03:45:46;;;;;;;;;2.00;2.00;;;;;;;;5026734;28;9614;-76
2023/02/19 03:48:32;;;;;;;;;3.75;2.50;;;;;;;;5044918;28;9702;-75
2023/02/19 03:51:13;;;;;;;;;4.00;4.00;;;;;;;;5022319;28;9760;-75
2023/02/19 03:53:50;;;;;;;;;4.00;4.00;;;;;;;;5051977;28;9828;-75
2023/02/19 03:56:23;;;;;;;;;3.00;3.00;;;;;;;;5045477;28;9952;-76
2023/02/19 03:58:56;;;;;;;;;4.25;3.00;;;;;;;;5042684;28;9772;-76
2023/02/19 04:01:28;;;;;;;;;1.25;1.25;;;;;;;;5043546;28;9724;-75
2023/02/19 04:04:01;;;;;;;;;2.25;2.25;;;;;;;;5028531;28;9705;-75
2023/02/19 04:06:30;;;;;;;;;1.75;1.75;;;;;;;;5050989;28;9708;-75
2023/02/19 04:09:01;;;;;;;;;4.00;2.00;;;;;;;;5046924;28;9669;-76
2023/02/19 04:11:30;;;;;;;;;2.00;2.00;;;;;;;;5031873;28;9972;-76
2023/02/19 04:14:03;;;;;;;;;4.25;2.00;;;;;;;;5050384;28;10562;-76
2023/02/19 04:16:32;;;;;;;;;2.00;2.00;;;;;;;;5016196;28;9754;-76
2023/02/19 04:19:07;;;;;;;;;3.00;2.00;;;;;;;;5038851;28;9746;-76
2023/02/19 04:21:36;;;;;;;;;2.00;2.00;;;;;;;;5030746;28;9716;-76
2023/02/19 04:24:09;;;;;;;;;1.00;1.00;;;;;;;;5051983;28;9756;-76
2023/02/19 04:26:37;;;;;;;;;1.00;1.00;;;;;;;;5054313;28;9764;-76
2023/02/19 04:29:04;;;;;;;;;1.50;0.00;;;;;;;;5052066;28;9611;-77
2023/02/19 04:31:35;;;;;;;;;2.25;2.25;;;;;;;;5051004;28;9660;-76
2023/02/19 04:34:05;;;;;;;;;0.00;0.00;;;;;;;;5029578;28;9772;-75
2023/02/19 04:36:33;;;;;;;;;2.00;1.00;;;;;;;;5035711;28;9815;-76
2023/02/19 04:39:00;;;;;;;;;1.00;1.00;;;;;;;;5049782;28;9677;-76
2023/02/19 04:41:28;;;;;;;;;1.75;1.75;;;;;;;;5046852;28;9729;-75
2023/02/19 04:43:55;;;;;;;;;1.00;1.00;;;;;;;;5049119;28;9765;-76
2023/02/19 04:46:23;;;;;;;;;2.50;1.00;;;;;;;;5049468;28;9627;-78
2023/02/19 04:48:51;;;;;;;;;1.00;1.00;;;;;;;;5049138;28;9596;-77
2023/02/19 04:51:19;;;;;;;;;3.00;1.50;;;;;;;;5013436;28;9565;-76
2023/02/19 04:53:47;;;;;;;;;0.50;0.50;;;;;;;;5027326;28;9713;-76
2023/02/19 04:56:16;;;;;;;;;0.00;0.00;;;;;;;;5049530;28;9639;-76
2023/02/19 04:58:45;;;;;;;;;2.00;1.00;;;;;;;;5046090;28;9705;-76
2023/02/19 05:01:13;;;;;;;;;1.00;1.00;;;;;;;;5044365;28;9708;-77
2023/02/19 05:03:41;;;;;;;;;0.25;0.25;;;;;;;;5025571;28;9648;-78
2023/02/19 05:06:11;;;;;;;;;1.00;1.00;;;;;;;;5026036;28;9632;-77
2023/02/19 05:08:41;;;;;;;;;3.00;1.00;;;;;;;;5044252;28;9752;-76
2023/02/19 05:11:11;;;;;;;;;1.00;1.00;;;;;;;;5041891;28;10684;-76
2023/02/19 05:13:39;;;;;;;;;0.00;0.00;;;;;;;;5023926;28;9705;-76
2023/02/19 05:16:12;;;;;;;;;0.00;0.00;;;;;;;;5044115;28;9788;-76
2023/02/19 05:18:39;;;;;;;;;2.00;1.00;;;;;;;;5044393;28;10611;-76
2023/02/19 05:21:07;;;;;;;;;1.00;1.00;;;;;;;;5041123;28;9774;-76
2023/02/19 05:23:35;;;;;;;;;0.75;0.75;;;;;;;;5026007;28;9852;-76
2023/02/19 05:26:07;;;;;;;;;0.25;0.00;;;;;;;;5025310;28;9601;-76
2023/02/19 05:28:34;;;;;;;;;2.00;0.25;;;;;;;;5028500;28;9614;-77
2023/02/19 05:31:06;;;;;;;;;0.75;0.75;;;;;;;;5025801;28;9654;-77
2023/02/19 05:33:34;;;;;;;;;2.00;0.00;;;;;;;;5025308;28;9770;-76
2023/02/19 05:36:07;;;;;;;;;1.00;1.00;;;;;;;;5051755;28;9689;-77
2023/02/19 05:38:34;;;;;;;;;1.00;1.00;;;;;;;;5043080;28;9780;-76
2023/02/19 05:41:12;;;;;;;;;2.00;0.00;;;;;;;;5041454;28;10698;-76
2023/02/19 05:43:39;;;;;;;;;1.00;1.00;;;;;;;;5048705;28;9807;-76
2023/02/19 05:46:08;;;;;;;;;3.00;1.00;;;;;;;;5045490;28;9674;-76
2023/02/19 05:48:36;;;;;;;;;0.00;0.00;;;;;;;;5026194;28;9722;-76
2023/02/19 05:51:05;;;;;;;;;2.00;0.75;;;;;;;;5025417;28;9770;-76
2023/02/19 05:53:33;;;;;;;;;0.00;0.00;;;;;;;;5040332;28;9757;-76
2023/02/19 05:56:00;;;;;;;;;1.00;1.00;;;;;;;;5041084;28;9616;-76
2023/02/19 05:58:30;;;;;;;;;3.00;1.00;;;;;;;;5047467;28;9686;-76
2023/02/19 06:00:57;;;;;;;;;1.75;1.50;;;;;;;;5038710;28;9558;-76
2023/02/19 06:03:25;;;;;;;;;0.00;0.00;;;;;;;;5024165;28;9710;-76
2023/02/19 06:05:53;;;;;;;;;1.75;1.00;;;;;;;;5023770;28;9644;-76
2023/02/19 06:08:20;;;;;;;;;0.00;0.00;;;;;;;;5045078;28;9606;-76
2023/02/19 06:10:48;;;;;;;;;1.00;1.00;;;;;;;;5025729;28;9712;-76
2023/02/19 06:13:15;;;;;;;;;0.25;0.00;;;;;;;;5044808;28;9625;-76
2023/02/19 06:15:44;;;;;;;;;2.00;2.00;;;;;;;;5023969;28;9719;-76
2023/02/19 06:18:11;;;;;;;;;0.00;0.00;;;;;;;;5040006;28;9689;-76
2023/02/19 06:20:39;;;;;;;;;2.75;1.75;;;;;;;;5044027;28;10451;-76
2023/02/19 06:23:07;;;;;;;;;0.50;0.25;;;;;;;;5041982;28;9559;-76
2023/02/19 06:25:34;;;;;;;;;1.50;0.00;;;;;;;;5047231;28;9683;-76
2023/02/19 06:28:02;;;;;;;;;0.75;0.75;;;;;;;;5045672;28;9711;-76
2023/02/19 06:30:29;;;;;;;;;2.00;2.00;;;;;;;;5045032;28;9519;-76
2023/02/19 06:32:58;;;;;;;;;2.25;1.00;;;;;;;;5042430;28;9661;-76
2023/02/19 06:35:26;;;;;;;;;1.00;1.00;;;;;;;;5042236;28;9594;-77
2023/02/19 06:37:53;;;;;;;;;0.25;0.25;;;;;;;;5044277;28;9705;-76
2023/02/19 06:40:21;;;;;;;;;1.25;1.25;;;;;;;;5001532;28;9555;-76
2023/02/19 06:42:48;;;;;;;;;1.00;1.00;;;;;;;;5049145;28;10584;-75
2023/02/19 06:45:16;;;;;;;;;1.00;1.00;;;;;;;;5041190;28;9810;-76
2023/02/19 06:47:43;;;;;;;;;1.00;1.00;;;;;;;;5050372;28;9618;-77
2023/02/19 06:50:12;;;;;;;;;1.00;1.00;;;;;;;;5048270;28;9704;-77
2023/02/19 06:52:39;;;;;;;;;2.50;1.00;;;;;;;;5046182;28;9602;-76
2023/02/19 06:55:07;;;;;;;;;2.75;1.00;;;;;;;;5048651;28;10595;-75
2023/02/19 06:57:34;;;;;;;;;0.00;0.00;;;;;;;;5048392;28;9777;-76
2023/02/19 07:00:03;;;;;;;;;0.25;0.00;;;;;;;;5046368;28;9616;-75
2023/02/19 07:02:30;;;;;;;;;1.00;1.00;;;;;;;;5008637;28;9839;-76
2023/02/19 07:04:58;;;;;;;;;3.00;0.75;;;;;;;;5043409;28;9888;-75
2023/02/19 07:07:27;;;;;;;;;2.00;0.00;;;;;;;;5021587;28;9769;-76
2023/02/19 07:09:55;;;;;;;;;1.00;1.00;;;;;;;;5043471;28;9692;-76
2023/02/19 07:12:22;;;;;;;;;3.00;1.00;;;;;;;;5027660;28;9846;-76
2023/02/19 07:14:49;;;;;;;;;4.75;0.75;;;;;;;;5040490;28;9850;-76
2023/02/19 07:17:17;;;;;;;;;1.00;1.00;;;;;;;;5038088;28;9766;-75
2023/02/19 07:19:44;;;;;;;;;1.00;1.00;;;;;;;;5038578;28;9922;-74
2023/02/19 07:22:12;;;;;;;;;1.00;1.00;;;;;;;;5024969;28;9793;-73
2023/02/19 07:24:41;;;;;;;;;2.50;1.00;;;;;;;;5037639;28;9879;-74
2023/02/19 07:27:08;;;;;;;;;2.75;1.00;;;;;;;;5043032;28;9793;-75
2023/02/19 07:29:36;;;;;;;;;2.00;0.00;;;;;;;;5041111;28;9966;-75
2023/02/19 07:32:04;;;;;;;;;2.00;0.75;;;;;;;;5030749;28;9758;-73
2023/02/19 07:34:31;;;;;;;;;1.00;1.00;;;;;;;;5020405;28;9771;-75
2023/02/19 07:36:58;;;;;;;;;3.50;1.75;;;;;;;;5048229;28;9853;-75
2023/02/19 07:39:26;;;;;;;;;1.50;1.00;;;;;;;;5022955;28;9949;-74
2023/02/19 07:41:55;;;;;;;;;2.25;0.00;;;;;;;;5051033;28;9940;-74
2023/02/19 07:44:22;;;;;;;;;3.50;2.00;;;;;;;;5026364;28;9893;-72
2023/02/19 07:46:50;;;;;;;;;1.00;1.00;;;;;;;;5047303;28;10043;-72
2023/02/19 07:49:17;;;;;;;;;1.00;1.00;;;;;;;;5031078;28;9878;-72
2023/02/19 07:51:45;;;;;;;;;1.00;1.00;;;;;;;;5026933;28;9862;-75
2023/02/19 07:54:13;;;;;;;;;1.75;1.00;;;;;;;;5043766;28;9978;-73
2023/02/19 07:56:40;;;;;;;;;3.00;1.00;;;;;;;;5025668;28;9891;-73
2023/02/19 07:59:10;;;;;;;;;1.50;1.00;;;;;;;;5049977;28;9832;-72
2023/02/19 08:04:22;;;;;;;;;1.00;0.00;;;;;;;;5048264;28;9769;-72
2023/02/19 08:06:50;;;;;;;;;0.00;0.00;;;;;;;;5047051;28;9625;-73
2023/02/19 08:09:17;;;;;;;;;4.00;0.75;;;;;;;;5046432;28;9687;-73
2023/02/19 08:14:31;;;;;;;;;2.00;2.00;;;;;;;;5043632;28;9679;-74
2023/02/19 08:16:58;;;;;;;;;1.00;1.00;;;;;;;;5047186;28;9685;-74
2023/02/19 08:19:26;;;;;;;;;2.00;0.00;;;;;;;;5048751;28;9700;-74
2023/02/19 08:21:54;;;;;;;;;1.00;1.00;;;;;;;;5048927;28;9599;-74
2023/02/19 08:24:21;;;;;;;;;0.25;0.00;;;;;;;;5042821;28;9550;-73
2023/02/19 08:26:48;;;;;;;;;3.00;1.25;;;;;;;;5046754;28;9564;-71
2023/02/19 08:29:16;;;;;;;;;3.00;2.25;;;;;;;;5048391;28;9555;-71
2023/02/19 08:31:45;;;;;;;;;3.25;1.50;;;;;;;;5026285;28;9638;-71
2023/02/19 08:34:12;;;;;;;;;1.00;1.00;;;;;;;;5031014;28;9617;-71
2023/02/19 08:36:40;;;;;;;;;1.00;1.00;;;;;;;;5046472;28;9571;-74
2023/02/19 08:39:07;;;;;;;;;1.33;1.33;;;;;;;;5040929;28;9483;-72
2023/02/19 08:41:35;;;;;;;;;1.25;1.25;;;;;;;;5018832;28;9507;-74
2023/02/19 08:44:02;;;;;;;;;1.50;1.00;;;;;;;;5041823;28;9617;-70
2023/02/19 08:46:30;;;;;;;;;3.50;2.00;;;;;;;;5020345;28;9482;-69
2023/02/19 08:48:59;;;;;;;;;3.33;2.00;;;;;;;;5021323;28;10182;-69
2023/02/19 08:51:26;;;;;;;;;2.00;2.00;;;;;;;;5014882;28;9564;-70
2023/02/19 08:53:54;;;;;;;;;1.67;1.67;;;;;;;;5022034;28;9474;-70
2023/02/19 08:56:21;;;;;;;;;3.00;1.75;;;;;;;;5028136;28;9295;-71
2023/02/19 08:58:49;;;;;;;;;1.00;1.00;;;;;;;;5025051;28;9503;-71
2023/02/19 09:01:18;;;;;;;;;2.00;2.00;;;;;;;;5017272;28;9308;-71
2023/02/19 09:03:46;;;;;;;;;2.00;2.00;;;;;;;;5019891;28;9336;-71
2023/02/19 09:06:18;;;;;;;;;2.33;2.33;;;;;;;;5016415;28;9277;-71
2023/02/19 09:08:45;;;;;;;;;1.00;1.00;;;;;;;;5019991;28;9309;-71
2023/02/19 09:11:13;;;;;;;;;2.50;2.50;;;;;;;;5022844;28;9333;-70
2023/02/19 09:13:40;;;;;;;;;2.00;2.00;;;;;;;;5016118;28;9565;-70
2023/02/19 09:16:08;;;;;;;;;4.75;1.75;;;;;;;;5019811;28;9553;-70
2023/02/19 09:18:36;;;;;;;;;5.25;2.50;;;;;;;;5023452;28;9558;-70
2023/02/19 09:21:05;;;;;;;;;5.75;4.00;;;;;;;;5021674;28;9478;-71
2023/02/19 09:23:36;;;;;;;;;6.00;3.00;;;;;;;;5022322;28;9479;-71
2023/02/19 09:26:07;;;;;;;;;3.33;3.33;;;;;;;;5025903;28;9436;-70
2023/02/19 09:28:35;;;;;;;;;3.00;1.33;;;;;;;;5018000;28;9415;-70
2023/02/19 09:31:05;;;;;;;;;3.33;2.00;;;;;;;;5015860;28;9283;-70
2023/02/19 09:33:32;;;;;;;;;2.00;2.00;;;;;;;;5019722;28;9411;-71
2023/02/19 09:36:00;;;;;;;;;4.33;3.00;;;;;;;;5027138;28;9197;-72
2023/02/19 09:38:28;;;;;;;;;2.67;2.67;;;;;;;;5020383;28;9120;-71
2023/02/19 09:40:57;;;;;;;;;3.67;1.00;;;;;;;;5028796;28;9257;-72
2023/02/19 09:43:28;;;;;;;;;3.00;3.00;;;;;;;;5025196;28;9814;-70
2023/02/19 09:46:02;;;;;;;;;2.00;1.00;;;;;;;;5026225;28;9225;-69
2023/02/19 09:48:30;;;;;;;;;2.50;2.00;;;;;;;;5041163;28;9703;-70
2023/02/19 09:50:58;;;;;;;;;2.25;2.25;;;;;;;;5041042;28;8896;-70
2023/02/19 09:53:29;;;;;;;;;3.00;1.75;;;;;;;;5037950;28;8834;-72
2023/02/19 09:55:58;;;;;;;;;3.00;3.00;;;;;;;;5043167;28;9687;-70
2023/02/19 09:58:29;;;;;;;;;2.00;2.00;;;;;;;;5037356;28;8882;-70
2023/02/19 10:00:58;;;;;;;;;2.00;1.75;;;;;;;;5037541;28;8751;-70
2023/02/19 10:03:30;;;;;;;;;5.75;3.00;;;;;;;;5042692;28;8882;-72
2023/02/19 10:06:00;;;;;;;;;3.00;1.00;;;;;;;;5038233;28;8973;-70
2023/02/19 10:08:30;;;;;;;;;2.00;2.00;;;;;;;;5037700;28;8854;-70
2023/02/19 10:11:00;;;;;;;;;4.00;4.00;;;;;;;;5037595;28;8987;-69
2023/02/19 10:13:32;;;;;;;;;3.00;2.00;;;;;;;;5015446;28;8886;-70
2023/02/19 10:16:02;;;;;;;;;2.25;2.25;;;;;;;;5037924;28;8858;-70
2023/02/19 10:18:34;;;;;;;;;4.50;3.00;;;;;;;;5044560;28;8892;-70
2023/02/19 10:21:01;;;;;;;;;3.33;3.33;;;;;;;;5039009;28;8845;-70
2023/02/19 10:23:29;;;;;;;;;4.75;3.00;;;;;;;;5043233;28;8964;-70
2023/02/19 10:25:59;;;;;;;;;1.25;1.25;;;;;;;;5024865;28;8871;-70
2023/02/19 10:28:29;;;;;;;;;2.33;2.33;;;;;;;;5039685;28;8831;-69
2023/02/19 10:30:59;;;;;;;;;2.25;2.25;;;;;;;;5019146;28;8929;-69
2023/02/19 10:33:27;;;;;;;;;3.75;2.75;;;;;;;;5021879;28;8855;-69
2023/02/19 10:35:57;;;;;;;;;4.00;3.00;;;;;;;;5017635;28;8874;-68
2023/02/19 10:38:28;;;;;;;;;9.00;4.00;;;;;;;;5039542;28;9027;-69
2023/02/19 10:41:04;;;;;;;;;2.00;2.00;;;;;;;;5039048;28;9083;-70
2023/02/19 10:43:35;;;;;;;;;3.00;2.00;;;;;;;;5038688;28;8988;-70
2023/02/19 10:46:06;;;;;;;;;3.00;3.00;;;;;;;;5023665;28;9124;-70
2023/02/19 10:48:37;;;;;;;;;1.33;1.33;;;;;;;;5021407;28;9689;-70
2023/02/19 10:51:07;;;;;;;;;2.00;2.00;;;;;;;;5040705;28;9040;-72
2023/02/19 10:53:44;;;;;;;;;2.00;2.00;;;;;;;;5040830;28;8970;-73
2023/02/19 10:56:14;;;;;;;;;2.67;2.33;;;;;;;;5045181;28;9170;-70
2023/02/19 10:58:43;;;;;;;;;2.00;2.00;;;;;;;;5044108;28;9189;-71
2023/02/19 11:01:22;;;;;;;;;2.00;2.00;;;;;;;;5044836;28;9042;-71
2023/02/19 11:03:50;;;;;;;;;2.00;2.00;;;;;;;;5042199;28;9679;-70
2023/02/19 11:06:22;;;;;;;;;2.67;2.00;;;;;;;;5042628;28;8998;-70
2023/02/19 11:08:54;;;;;;;;;2.67;2.67;;;;;;;;5038646;28;9078;-69
2023/02/19 11:11:39;;;;;;;;;2.67;2.00;;;;;;;;5041902;28;8984;-70
2023/02/19 11:14:14;;;;;;;;;3.00;3.00;;;;;;;;5038866;28;9024;-69
2023/02/19 11:16:44;;;;;;;;;3.00;3.00;;;;;;;;5040249;28;8998;-70
2023/02/19 11:19:25;;;;;;;;;2.75;2.75;;;;;;;;5024050;28;8962;-71
2023/02/19 11:21:53;;;;;;;;;2.00;2.00;;;;;;;;5041464;28;8869;-70
2023/02/19 11:24:26;;;;;;;;;4.00;3.25;;;;;;;;5035054;28;8857;-69
2023/02/19 11:26:55;;;;;;;;;1.25;1.25;;;;;;;;5044497;28;9328;-69
2023/02/19 11:29:27;;;;;;;;;5.50;4.00;;;;;;;;5040368;28;8877;-70
2023/02/19 11:31:55;;;;;;;;;3.00;3.00;;;;;;;;5035755;28;8946;-70
2023/02/19 11:34:30;;;;;;;;;2.75;2.75;;;;;;;;5039672;28;8835;-71
2023/02/19 11:37:12;;;;;;;;;2.50;2.50;;;;;;;;5046222;28;8887;-70
2023/02/19 11:39:41;;;;;;;;;0.50;0.25;;;;;;;;5043866;28;9640;-72
2023/02/19 11:42:22;;;;;;;;;5.50;4.00;;;;;;;;5040891;28;8813;-71
2023/02/19 11:45:02;;;;;;;;;3.00;3.00;;;;;;;;5044337;28;8873;-70
2023/02/19 11:47:54;;;;;;;;;3.00;3.00;;;;;;;;5039566;28;8865;-69
2023/02/19 11:50:26;;;;;;;;;4.50;4.50;;;;;;;;5033518;28;8892;-69
2023/02/19 11:53:05;;;;;;;;;3.25;3.00;;;;;;;;5036714;28;8838;-71
2023/02/19 11:55:43;;;;;;;;;4.25;2.00;;;;;;;;5035269;28;9801;-71
2023/02/19 11:58:33;;;;;;;;;2.50;2.00;;;;;;;;5039210;28;8902;-71
2023/02/19 12:01:06;;;;;;;;;7.75;3.50;;;;;;;;5019002;28;9245;-71
2023/02/19 12:03:50;;;;;;;;;3.00;1.75;;;;;;;;5017420;28;8847;-70
2023/02/19 12:06:23;;;;;;;;;4.00;3.50;;;;;;;;5038384;28;8823;-70
2023/02/19 12:09:03;;;;;;;;;4.00;3.00;;;;;;;;5035167;28;8874;-70
2023/02/19 12:11:52;;;;;;;;;1.00;1.00;;;;;;;;5037001;28;8868;-70
2023/02/19 12:15:05;;;;;;;;;1.75;1.75;;;;;;;;5038238;28;9664;-70
2023/02/19 12:17:46;;;;;;;;;2.50;2.50;;;;;;;;5032208;28;9672;-69
2023/02/19 12:20:19;;;;;;;;;2.50;2.50;;;;;;;;5039223;28;8925;-71
2023/02/19 12:22:52;;;;;;;;;3.25;1.75;;;;;;;;5037095;28;8874;-70
2023/02/19 12:25:29;;;;;;;;;4.25;2.25;;;;;;;;5023083;28;8870;-69
2023/02/19 12:28:18;;;;;;;;;2.75;2.75;;;;;;;;5037698;28;8863;-71
2023/02/19 12:31:07;;;;;;;;;2.00;2.00;;;;;;;;5026218;28;8797;-70
2023/02/19 12:34:05;;;;;;;;;1.25;1.25;;;;;;;;5041222;28;8839;-71
2023/02/19 12:36:40;;;;;;;;;4.50;2.00;;;;;;;;5030460;28;8878;-72
2023/02/19 12:39:16;;;;;;;;;2.00;2.00;;;;;;;;5007339;28;8858;-71
2023/02/19 12:41:47;;;;;;;;;1.00;1.00;;;;;;;;5022912;28;8851;-70
2023/02/19 12:44:18;;;;;;;;;2.00;2.00;;;;;;;;5043319;28;8870;-71
2023/02/19 12:46:51;;;;;;;;;3.00;2.00;;;;;;;;5020150;28;9740;-70
2023/02/19 12:49:24;;;;;;;;;2.75;1.00;;;;;;;;5038895;28;8928;-69
2023/02/19 12:51:56;;;;;;;;;3.50;1.50;;;;;;;;5045353;28;8901;-69
2023/02/19 12:54:26;;;;;;;;;1.00;0.50;;;;;;;;5041526;28;8916;-70
2023/02/19 12:56:57;;;;;;;;;1.25;0.00;;;;;;;;5037415;28;8854;-69
2023/02/19 12:59:29;;;;;;;;;0.00;0.00;;;;;;;;5038073;28;8867;-69
2023/02/19 13:02:05;;;;;;;;;0.00;0.00;;;;;;;;5027590;28;8796;-70
2023/02/19 13:04:42;;;;;;;;;1.75;1.75;;;;;;;;5042455;28;9229;-70
2023/02/19 13:07:14;;;;;;;;;1.00;1.00;;;;;;;;5047127;28;9597;-70
2023/02/19 13:09:46;;;;;;;;;3.50;1.00;;;;;;;;5041300;28;8854;-69
2023/02/19 13:12:18;;;;;;;;;1.50;0.00;;;;;;;;5047816;28;8905;-70
2023/02/19 13:14:48;;;;;;;;;1.25;0.00;;;;;;;;5039246;28;8940;-70
2023/02/19 13:17:26;;;;;;;;;1.00;1.00;;;;;;;;5041018;28;9714;-70
2023/02/19 13:19:58;;;;;;;;;1.00;0.00;;;;;;;;5034954;28;8843;-70
2023/02/19 13:25:19;;;;;;;;;0.00;0.00;;;;;;;;5043372;28;8811;-70
2023/02/19 13:28:06;;;;;;;;;0.00;0.00;;;;;;;;5019172;28;8877;-68
2023/02/19 13:30:49;;;;;;;;;1.00;1.00;;;;;;;;5040919;28;8794;-70
2023/02/19 13:33:32;;;;;;;;;0.00;0.00;;;;;;;;5036689;28;8925;-69
2023/02/19 13:36:07;;;;;;;;;0.00;0.00;;;;;;;;5046405;28;8852;-69
2023/02/19 13:38:39;;;;;;;;;0.75;0.75;;;;;;;;5036375;28;8818;-69
2023/02/19 13:41:07;;;;;;;;;1.00;1.00;;;;;;;;5041269;28;8881;-70
2023/02/19 13:43:37;;;;;;;;;1.00;1.00;;;;;;;;5038895;28;9659;-71
2023/02/19 13:46:08;;;;;;;;;1.00;1.00;;;;;;;;5037861;28;8988;-70
2023/02/19 13:48:39;;;;;;;;;1.50;0.75;;;;;;;;5034502;28;8871;-70
2023/02/19 13:51:40;;;;;;;;;1.50;0.00;;;;;;;;5036967;28;8839;-69
2023/02/19 13:54:26;;;;;;;;;1.25;1.00;;;;;;;;5039927;28;8851;-69
2023/02/19 13:57:28;;;;;;;;;1.00;1.00;;;;;;;;5035736;28;8866;-71
2023/02/19 13:59:56;;;;;;;;;2.00;1.00;;;;;;;;5035243;28;8927;-70
2023/02/19 14:02:32;;;;;;;;;1.00;1.00;;;;;;;;5039983;28;8822;-68
2023/02/19 14:05:06;;;;;;;;;1.25;1.25;;;;;;;;5036188;28;8860;-70
2023/02/19 14:07:48;;;;;;;;;1.00;1.00;;;;;;;;5039435;28;8922;-69
2023/02/19 14:11:01;;;;;;;;;0.00;0.00;;;;;;;;5044733;28;8858;-69
2023/02/19 14:13:56;;;;;;;;;0.00;0.00;;;;;;;;5040613;28;8805;-69
2023/02/19 14:16:33;;;;;;;;;0.00;0.00;;;;;;;;5012695;28;8870;-70
2023/02/19 14:19:01;;;;;;;;;3.25;1.50;;;;;;;;5021855;28;8851;-69
2023/02/19 14:21:37;;;;;;;;;2.00;1.00;;;;;;;;5042256;28;8889;-70
2023/02/19 14:24:05;;;;;;;;;0.75;0.75;;;;;;;;5041416;28;8872;-69
2023/02/19 14:26:35;;;;;;;;;0.75;0.75;;;;;;;;5046303;28;8836;-70
2023/02/19 14:29:03;;;;;;;;;4.00;2.50;;;;;;;;5019227;28;8951;-70
2023/02/19 14:31:31;;;;;;;;;3.00;1.25;;;;;;;;5034916;28;8818;-69
2023/02/19 14:34:02;;;;;;;;;0.25;0.25;;;;;;;;5037460;28;8896;-69
2023/02/19 14:36:44;;;;;;;;;1.00;1.00;;;;;;;;5039715;28;8975;-69
2023/02/19 14:39:15;;;;;;;;;1.50;1.50;;;;;;;;5040661;28;8855;-72
2023/02/19 14:41:46;;;;;;;;;0.25;0.25;;;;;;;;5048618;28;8836;-69
2023/02/19 14:44:18;;;;;;;;;2.75;1.00;;;;;;;;5043007;28;8870;-68
2023/02/19 14:46:56;;;;;;;;;0.50;0.50;;;;;;;;5034945;28;8868;-70
2023/02/19 14:49:29;;;;;;;;;0.00;0.00;;;;;;;;5033306;28;8862;-70
2023/02/19 14:51:59;;;;;;;;;2.50;1.00;;;;;;;;5015306;28;8852;-71
2023/02/19 14:54:37;;;;;;;;;1.75;1.75;;;;;;;;5020152;28;9245;-70
2023/02/19 14:57:10;;;;;;;;;2.25;1.75;;;;;;;;5003747;28;8904;-71
2023/02/19 14:59:38;;;;;;;;;2.00;2.00;;;;;;;;5014528;28;9179;-71
2023/02/19 15:02:16;;;;;;;;;2.75;2.00;;;;;;;;5023278;28;8819;-71
2023/02/19 15:04:44;;;;;;;;;2.00;2.00;;;;;;;;5041669;28;9096;-71
2023/02/19 15:07:16;;;;;;;;;1.00;1.00;;;;;;;;5038198;28;8909;-71
2023/02/19 15:09:47;;;;;;;;;2.00;2.00;;;;;;;;5043100;28;8890;-71
2023/02/19 15:12:20;;;;;;;;;1.50;1.00;;;;;;;;5038238;28;8879;-71
2023/02/19 15:14:50;;;;;;;;;2.00;2.00;;;;;;;;5025442;28;8832;-71
2023/02/19 15:17:23;;;;;;;;;4.00;2.25;;;;;;;;5037642;28;8851;-70
2023/02/19 15:19:50;;;;;;;;;1.50;1.50;;;;;;;;5042138;28;8870;-70
2023/02/19 15:22:22;;;;;;;;;1.00;1.00;;;;;;;;5040738;28;9624;-70
2023/02/19 15:24:50;;;;;;;;;2.00;2.00;;;;;;;;5040708;28;8854;-71
2023/02/19 15:27:19;;;;;;;;;1.00;1.00;;;;;;;;5042363;28;8834;-71
2023/02/19 15:29:48;;;;;;;;;0.50;0.50;;;;;;;;5038763;28;8841;-70
2023/02/19 15:32:20;;;;;;;;;2.25;1.00;;;;;;;;5034711;28;8834;-72
2023/02/19 15:34:55;;;;;;;;;1.75;1.75;;;;;;;;5040873;28;9031;-72
2023/02/19 15:37:25;;;;;;;;;3.00;1.00;;;;;;;;5037840;28;8858;-72
2023/02/19 15:39:53;;;;;;;;;1.50;1.50;;;;;;;;5038984;28;8860;-71
2023/02/19 15:42:23;;;;;;;;;2.00;2.00;;;;;;;;5037954;28;8874;-72
2023/02/19 15:44:55;;;;;;;;;1.00;1.00;;;;;;;;5033748;28;8853;-70
2023/02/19 15:47:26;;;;;;;;;1.00;1.00;;;;;;;;4996696;28;8913;-72